Time;durP1;ratioP1;P1;durP2;ratioP2;P2;SDS_P1;SDS_P2;PMS_P1;PMS_P2;Temp;Humidity;BMP_temperature;BMP_pressure;BME280_temperature;BME280_humidity;BME280_pressure;Samples;Min_cycle;Max_cycle;Signal;HPM_P1;HPM_P2
2021/11/16 00:01:38;;;;;;;31.57;21.80;;;9.40;99.90;;;;;;5033658;28;20410;-57
2021/11/16 00:04:04;;;;;;;31.07;21.20;;;9.40;99.90;;;;;;5033476;28;20204;-55
2021/11/16 00:06:30;;;;;;;34.50;23.77;;;9.40;99.90;;;;;;5055392;22;20498;-55
2021/11/16 00:08:56;;;;;;;38.30;24.97;;;9.50;99.90;;;;;;5033442;28;20397;-58
2021/11/16 00:11:21;;;;;;;29.83;23.07;;;9.50;99.90;;;;;;5033918;28;20612;-57
2021/11/16 00:13:49;;;;;;;31.97;23.60;;;9.60;99.90;;;;;;5033132;28;20174;-55
2021/11/16 00:16:15;;;;;;;31.20;23.30;;;9.50;99.90;;;;;;5027282;28;20496;-56
2021/11/16 00:18:40;;;;;;;30.90;22.13;;;9.60;99.90;;;;;;5012865;28;20425;-54
2021/11/16 00:21:08;;;;;;;29.07;20.87;;;9.60;99.90;;;;;;5013377;28;20176;-57
2021/11/16 00:23:36;;;;;;;31.23;22.67;;;9.50;99.90;;;;;;5013661;28;20405;-53
2021/11/16 00:26:04;;;;;;;32.20;23.60;;;9.50;99.90;;;;;;5013598;28;20458;-55
2021/11/16 00:28:30;;;;;;;36.73;23.67;;;9.60;99.90;;;;;;5014334;28;20484;-58
2021/11/16 00:30:56;;;;;;;28.73;20.33;;;9.40;99.90;;;;;;5013590;28;20390;-56
2021/11/16 00:33:23;;;;;;;31.03;23.33;;;9.10;99.90;;;;;;5013135;28;20198;-54
2021/11/16 00:35:50;;;;;;;34.53;22.90;;;9.20;99.90;;;;;;5011858;28;20181;-55
2021/11/16 00:38:18;;;;;;;30.93;21.03;;;9.20;99.90;;;;;;5013436;28;20478;-54
2021/11/16 00:40:44;;;;;;;29.60;22.10;;;9.40;99.90;;;;;;5013170;28;20464;-51
2021/11/16 00:43:10;;;;;;;31.70;22.73;;;9.50;99.90;;;;;;5013625;28;20411;-52
2021/11/16 00:45:42;;;;;;;32.30;22.30;;;9.50;99.90;;;;;;5013366;28;20496;-51
2021/11/16 00:48:09;;;;;;;33.00;23.40;;;9.40;99.90;;;;;;5013406;28;20509;-57
2021/11/16 00:50:38;;;;;;;29.47;20.53;;;9.60;99.90;;;;;;5013309;28;20403;-54
2021/11/16 00:53:05;;;;;;;28.67;20.87;;;9.60;99.90;;;;;;4996234;28;20406;-52
2021/11/16 00:55:31;;;;;;;34.17;23.40;;;9.70;99.90;;;;;;5013354;28;20408;-54
2021/11/16 00:57:57;;;;;;;27.60;20.23;;;9.70;99.90;;;;;;5012971;28;20771;-55
2021/11/16 01:00:22;;;;;;;30.53;22.57;;;9.70;99.90;;;;;;5014134;28;20180;-55
2021/11/16 01:02:48;;;;;;;33.43;23.13;;;9.70;99.90;;;;;;5012514;28;20184;-56
2021/11/16 01:05:14;;;;;;;30.30;22.73;;;9.70;99.90;;;;;;5010276;28;20545;-54
2021/11/16 01:07:43;;;;;;;30.97;22.43;;;9.60;99.90;;;;;;5016490;28;20274;-53
2021/11/16 01:10:11;;;;;;;30.97;20.63;;;9.60;99.90;;;;;;5017033;28;20415;-54
2021/11/16 01:12:38;;;;;;;31.47;21.70;;;9.70;99.90;;;;;;5016519;28;20399;-55
2021/11/16 01:15:06;;;;;;;36.10;25.13;;;9.70;99.90;;;;;;5017055;28;20449;-52
2021/11/16 01:17:32;;;;;;;28.00;20.50;;;9.80;99.90;;;;;;5015579;28;20444;-56
2021/11/16 01:19:58;;;;;;;33.57;23.00;;;9.70;99.90;;;;;;5016641;28;20507;-53
2021/11/16 01:22:24;;;;;;;31.87;22.40;;;9.60;99.90;;;;;;4998665;28;20173;-53
2021/11/16 01:24:49;;;;;;;32.90;23.57;;;9.50;99.90;;;;;;5016663;28;20198;-53
2021/11/16 01:27:18;;;;;;;30.40;23.27;;;9.60;99.90;;;;;;5016421;28;20425;-54
2021/11/16 01:29:46;;;;;;;34.27;23.43;;;9.60;99.90;;;;;;5013438;28;20551;-54
2021/11/16 01:32:26;;;;;;;32.17;24.17;;;9.60;99.90;;;;;;5016588;28;20495;-53
2021/11/16 01:34:53;;;;;;;34.67;22.40;;;9.60;99.90;;;;;;5016231;28;20428;-54
2021/11/16 01:37:19;;;;;;;28.07;20.33;;;9.70;99.90;;;;;;5016289;28;20429;-58
2021/11/16 01:39:45;;;;;;;37.17;25.60;;;9.70;99.90;;;;;;5016379;28;20412;-57
2021/11/16 01:42:11;;;;;;;28.40;21.70;;;9.70;99.90;;;;;;5016348;28;20404;-57
2021/11/16 01:44:38;;;;;;;32.70;23.00;;;9.60;99.90;;;;;;5016422;28;20547;-55
2021/11/16 01:47:04;;;;;;;30.00;21.43;;;9.60;99.90;;;;;;5016428;28;20503;-57
2021/11/16 01:49:30;;;;;;;27.43;20.30;;;9.60;99.90;;;;;;5015437;28;20783;-53
2021/11/16 01:51:56;;;;;;;26.90;21.40;;;9.70;99.90;;;;;;5016136;28;20952;-55
2021/11/16 01:54:21;;;;;;;32.07;21.63;;;9.70;99.90;;;;;;5016368;28;20445;-55
2021/11/16 01:56:47;;;;;;;25.73;18.37;;;9.60;99.90;;;;;;5015520;28;20204;-54
2021/11/16 01:59:18;;;;;;;30.57;20.67;;;9.60;99.90;;;;;;5016374;28;20182;-56
2021/11/16 02:01:44;;;;;;;33.07;24.03;;;9.60;99.90;;;;;;5016326;28;20184;-58
2021/11/16 02:04:10;;;;;;;30.40;21.27;;;9.70;99.90;;;;;;5015943;28;20418;-57
2021/11/16 02:06:38;;;;;;;27.17;19.60;;;9.70;99.90;;;;;;5015503;28;20470;-57
2021/11/16 02:09:08;;;;;;;30.43;19.50;;;9.70;99.90;;;;;;5015847;28;20517;-55
2021/11/16 02:11:34;;;;;;;27.03;19.80;;;9.70;99.90;;;;;;5015690;28;20399;-57
2021/11/16 02:14:01;;;;;;;29.43;19.90;;;9.50;99.90;;;;;;5015031;28;20478;-53
2021/11/16 02:16:27;;;;;;;30.07;21.27;;;9.60;99.90;;;;;;5015640;28;20423;-53
2021/11/16 02:18:53;;;;;;;29.80;20.27;;;9.60;99.90;;;;;;5015784;28;20411;-54
2021/11/16 02:21:19;;;;;;;27.13;18.80;;;9.50;99.90;;;;;;4997855;28;20947;-54
2021/11/16 02:23:45;;;;;;;25.33;18.60;;;9.50;99.90;;;;;;5015875;28;20410;-53
2021/11/16 02:26:12;;;;;;;27.97;20.37;;;9.60;99.90;;;;;;5015073;28;20208;-56
2021/11/16 02:28:41;;;;;;;29.83;20.87;;;9.50;99.90;;;;;;5009717;28;20426;-53
2021/11/16 02:31:06;;;;;;;29.57;21.87;;;9.50;99.90;;;;;;5006224;28;20435;-58
2021/11/16 02:33:32;;;;;;;29.97;20.73;;;9.60;99.90;;;;;;4999266;28;20414;-56
2021/11/16 02:35:58;;;;;;;28.33;19.80;;;9.50;99.90;;;;;;4996256;28;20243;-55
2021/11/16 02:38:25;;;;;;;26.37;19.40;;;9.40;99.90;;;;;;4995451;28;20179;-55
2021/11/16 02:40:53;;;;;;;27.70;19.90;;;9.20;99.90;;;;;;4996383;28;20419;-54
2021/11/16 02:43:20;;;;;;;27.73;20.93;;;9.30;99.90;;;;;;4986974;28;20465;-54
2021/11/16 02:45:47;;;;;;;32.23;21.00;;;9.40;99.90;;;;;;5015328;28;20446;-55
2021/11/16 02:48:12;;;;;;;28.90;20.37;;;9.40;99.90;;;;;;5016256;28;20415;-53
2021/11/16 02:50:45;;;;;;;27.50;20.57;;;9.40;99.90;;;;;;5015178;28;20505;-56
2021/11/16 02:53:12;;;;;;;32.40;22.20;;;9.50;99.90;;;;;;5014782;28;20151;-54
2021/11/16 02:55:38;;;;;;;27.40;20.37;;;9.50;99.90;;;;;;5014572;28;20406;-57
2021/11/16 02:58:04;;;;;;;31.90;22.83;;;9.40;99.90;;;;;;5014231;28;20426;-57
2021/11/16 03:00:31;;;;;;;32.97;22.40;;;9.30;99.90;;;;;;5015248;28;20928;-54
2021/11/16 03:02:58;;;;;;;28.97;21.00;;;9.40;99.90;;;;;;5014864;28;20402;-53
2021/11/16 03:05:31;;;;;;;28.67;20.87;;;9.50;99.90;;;;;;5015037;28;20559;-55
2021/11/16 03:07:57;;;;;;;29.93;20.20;;;9.50;99.90;;;;;;5014459;28;20457;-53
2021/11/16 03:10:26;;;;;;;26.20;19.13;;;9.50;99.90;;;;;;5014598;28;20411;-52
2021/11/16 03:12:53;;;;;;;28.00;20.10;;;9.40;99.90;;;;;;5014666;28;20972;-54
2021/11/16 03:15:19;;;;;;;26.47;19.37;;;9.40;99.90;;;;;;5014955;28;20930;-52
2021/11/16 03:17:46;;;;;;;32.30;22.07;;;9.30;99.90;;;;;;5014573;28;20427;-53
2021/11/16 03:20:14;;;;;;;25.90;18.47;;;9.40;99.90;;;;;;5014597;28;20406;-52
2021/11/16 03:22:50;;;;;;;29.17;20.60;;;9.50;99.90;;;;;;5011209;28;20821;-54
2021/11/16 03:25:18;;;;;;;30.77;21.57;;;9.50;99.90;;;;;;5014976;28;20809;-52
2021/11/16 03:27:46;;;;;;;28.67;20.90;;;9.50;99.90;;;;;;5013725;28;20800;-52
2021/11/16 03:30:12;;;;;;;29.40;21.70;;;9.50;99.90;;;;;;5014296;28;20441;-57
2021/11/16 03:32:38;;;;;;;33.33;23.17;;;9.40;99.90;;;;;;5014223;28;20919;-57
2021/11/16 03:35:06;;;;;;;25.40;18.53;;;9.40;99.90;;;;;;5014382;28;20488;-54
2021/11/16 03:37:43;;;;;;;29.73;21.00;;;9.40;99.90;;;;;;4996708;28;20560;-53
2021/11/16 03:40:10;;;;;;;32.00;21.30;;;9.30;99.90;;;;;;5014512;28;20390;-52
2021/11/16 03:42:41;;;;;;;32.13;22.30;;;9.20;99.90;;;;;;5014250;28;20747;-54
2021/11/16 03:45:07;;;;;;;32.50;22.30;;;9.20;99.90;;;;;;5014011;28;21029;-55
2021/11/16 03:47:33;;;;;;;28.13;21.33;;;9.20;99.90;;;;;;5013904;28;20422;-53
2021/11/16 03:49:58;;;;;;;27.00;20.00;;;9.20;99.90;;;;;;5013996;28;20404;-57
2021/11/16 03:52:25;;;;;;;28.00;20.87;;;9.00;99.90;;;;;;5013817;28;20165;-52
2021/11/16 03:54:52;;;;;;;31.33;21.33;;;9.10;99.90;;;;;;5013959;28;20183;-53
2021/11/16 03:57:18;;;;;;;24.83;19.17;;;9.20;99.90;;;;;;5013708;28;20436;-55
2021/11/16 03:59:44;;;;;;;31.67;21.73;;;9.30;99.90;;;;;;5014078;28;20414;-53
2021/11/16 04:02:10;;;;;;;32.30;23.00;;;9.30;99.90;;;;;;5013836;28;20403;-53
2021/11/16 04:04:36;;;;;;;25.70;20.63;;;9.30;99.90;;;;;;5014264;28;20413;-54
2021/11/16 04:07:01;;;;;;;29.30;19.70;;;9.40;99.90;;;;;;5014058;28;20671;-54
2021/11/16 04:09:27;;;;;;;25.80;18.73;;;9.40;99.90;;;;;;5014080;28;20414;-52
2021/11/16 04:11:53;;;;;;;28.47;20.10;;;9.40;99.90;;;;;;5016169;28;20219;-54
2021/11/16 04:14:18;;;;;;;28.10;20.00;;;9.40;99.90;;;;;;5015413;28;20251;-54
2021/11/16 04:16:44;;;;;;;27.83;19.80;;;9.40;99.90;;;;;;5014733;28;20653;-55
2021/11/16 04:19:10;;;;;;;29.20;21.70;;;9.50;99.90;;;;;;5013862;28;20169;-57
2021/11/16 04:21:36;;;;;;;32.63;21.43;;;9.40;99.90;;;;;;5014144;28;20186;-57
2021/11/16 04:24:02;;;;;;;27.07;19.43;;;9.40;99.90;;;;;;5013734;28;20822;-59
2021/11/16 04:26:28;;;;;;;25.67;18.97;;;9.50;99.90;;;;;;5013734;28;20202;-59
2021/11/16 04:28:53;;;;;;;27.73;20.03;;;9.50;99.90;;;;;;5013773;28;20411;-58
2021/11/16 04:31:19;;;;;;;32.47;23.23;;;9.30;99.90;;;;;;5013578;28;20509;-55
2021/11/16 04:33:44;;;;;;;31.20;22.47;;;9.10;99.90;;;;;;5012757;28;20171;-56
2021/11/16 04:36:17;;;;;;;29.77;20.03;;;9.10;99.90;;;;;;5013259;28;20213;-56
2021/11/16 04:38:42;;;;;;;27.40;22.00;;;9.10;99.90;;;;;;5013359;28;20523;-56
2021/11/16 04:41:08;;;;;;;30.33;20.40;;;9.10;99.90;;;;;;5013239;28;20409;-56
2021/11/16 04:43:33;;;;;;;32.83;21.70;;;9.00;99.90;;;;;;5013345;28;20589;-59
2021/11/16 04:46:05;;;;;;;34.60;22.43;;;9.00;99.90;;;;;;5013252;28;20209;-56
2021/11/16 04:48:47;;;;;;;32.43;22.23;;;9.10;99.90;;;;;;5013544;28;20162;-58
2021/11/16 05:04:37;;;;;;;26.83;19.37;;;8.90;99.90;;;;;;5013298;28;20444;-57
2021/11/16 05:07:04;;;;;;;28.50;20.17;;;8.90;99.90;;;;;;5012746;28;20453;-57
2021/11/16 05:09:31;;;;;;;29.23;20.60;;;8.80;99.90;;;;;;5013366;28;20175;-56
2021/11/16 05:11:58;;;;;;;33.43;23.03;;;8.90;99.90;;;;;;5012857;28;20405;-53
2021/11/16 05:14:24;;;;;;;31.87;21.37;;;8.90;99.90;;;;;;5013186;28;20402;-57
2021/11/16 05:16:49;;;;;;;33.70;22.33;;;8.90;99.90;;;;;;5013107;28;20429;-52
2021/11/16 05:19:15;;;;;;;34.77;23.40;;;8.90;99.90;;;;;;5012973;28;20260;-56
2021/11/16 05:21:41;;;;;;;36.53;21.63;;;8.80;99.90;;;;;;5012667;28;20634;-53
2021/11/16 05:24:06;;;;;;;28.13;20.17;;;8.80;99.90;;;;;;5007799;28;20182;-53
2021/11/16 05:26:32;;;;;;;32.43;21.13;;;8.90;99.90;;;;;;4995079;28;20208;-54
2021/11/16 05:28:58;;;;;;;30.53;20.43;;;8.80;99.90;;;;;;4995718;28;20171;-53
2021/11/16 05:31:25;;;;;;;32.50;22.27;;;8.80;99.90;;;;;;4993471;28;20194;-54
2021/11/16 05:33:54;;;;;;;33.53;22.53;;;8.80;99.90;;;;;;4995757;28;20473;-55
2021/11/16 05:36:19;;;;;;;30.20;20.80;;;8.70;99.90;;;;;;5013177;28;20436;-54
2021/11/16 05:38:49;;;;;;;30.53;21.23;;;8.60;99.90;;;;;;5012630;28;20777;-54
2021/11/16 05:41:16;;;;;;;33.03;23.07;;;8.60;99.90;;;;;;5012732;28;20226;-58
2021/11/16 05:43:44;;;;;;;32.97;21.10;;;8.40;99.90;;;;;;5012810;28;20414;-55
2021/11/16 05:46:11;;;;;;;29.80;21.90;;;8.40;99.90;;;;;;5013374;28;20462;-57
2021/11/16 05:48:39;;;;;;;28.80;20.50;;;8.50;99.90;;;;;;5016259;28;20892;-54
2021/11/16 05:51:06;;;;;;;33.23;21.30;;;8.40;99.90;;;;;;5016422;28;20408;-56
2021/11/16 05:53:33;;;;;;;31.97;22.20;;;8.40;99.90;;;;;;5016015;28;20422;-56
2021/11/16 05:55:59;;;;;;;30.33;21.60;;;8.30;99.90;;;;;;5016240;28;20487;-59
2021/11/16 05:58:25;;;;;;;31.83;20.40;;;8.40;99.90;;;;;;5015736;28;20410;-58
2021/11/16 06:00:51;;;;;;;31.03;20.57;;;8.40;99.90;;;;;;5016258;28;20174;-53
2021/11/16 06:03:17;;;;;;;27.03;20.93;;;8.40;99.90;;;;;;5016218;28;20550;-54
2021/11/16 06:05:43;;;;;;;27.37;19.60;;;8.40;99.90;;;;;;5015839;28;20470;-57
2021/11/16 06:08:25;;;;;;;32.03;21.70;;;8.50;99.90;;;;;;5016245;22;20495;-57
2021/11/16 06:10:51;;;;;;;31.73;22.03;;;8.50;99.90;;;;;;4995979;28;20411;-57
2021/11/16 06:13:17;;;;;;;29.63;21.60;;;8.40;99.90;;;;;;4997093;28;20896;-55
2021/11/16 06:15:43;;;;;;;29.73;21.67;;;8.30;99.90;;;;;;4997133;28;20494;-54
2021/11/16 06:18:09;;;;;;;31.30;21.37;;;8.30;99.90;;;;;;4996929;28;20558;-54
2021/11/16 06:20:35;;;;;;;31.83;21.37;;;8.10;99.90;;;;;;4996714;28;20392;-56
2021/11/16 06:23:00;;;;;;;34.07;23.17;;;8.00;99.90;;;;;;4996256;28;20220;-53
2021/11/16 06:25:26;;;;;;;27.97;20.27;;;8.00;99.90;;;;;;4996502;28;20545;-57
2021/11/16 06:27:51;;;;;;;30.33;21.13;;;8.10;99.90;;;;;;4996681;28;20194;-57
2021/11/16 06:30:17;;;;;;;28.83;20.20;;;8.10;99.90;;;;;;4997667;28;20767;-55
2021/11/16 06:32:44;;;;;;;31.50;21.80;;;8.20;99.90;;;;;;4997453;28;20170;-54
2021/11/16 06:35:19;;;;;;;32.17;20.70;;;8.10;99.90;;;;;;4996565;28;20249;-54
2021/11/16 06:37:47;;;;;;;30.17;19.70;;;8.10;99.90;;;;;;4983929;28;20535;-57
2021/11/16 06:40:15;;;;;;;23.20;16.57;;;8.20;99.90;;;;;;4977408;28;20417;-50
2021/11/16 06:42:40;;;;;;;28.87;19.60;;;8.30;99.90;;;;;;4977296;28;20752;-52
2021/11/16 06:45:07;;;;;;;24.67;17.47;;;8.20;99.90;;;;;;4976944;28;20448;-54
2021/11/16 06:47:33;;;;;;;24.07;17.33;;;8.20;99.90;;;;;;4976933;28;20188;-56
2021/11/16 06:49:58;;;;;;;27.07;20.60;;;8.20;99.90;;;;;;4976714;28;20430;-52
2021/11/16 06:52:27;;;;;;;26.07;17.80;;;8.20;99.90;;;;;;4978582;28;20176;-49
2021/11/16 06:54:52;;;;;;;26.40;18.20;;;8.20;99.90;;;;;;4978219;28;20167;-49
2021/11/16 06:57:18;;;;;;;23.77;17.67;;;8.20;99.90;;;;;;4978051;28;20585;-56
2021/11/16 06:59:44;;;;;;;20.27;15.80;;;8.10;99.90;;;;;;4976972;28;20582;-58
2021/11/16 07:02:09;;;;;;;21.60;16.83;;;8.30;99.90;;;;;;4978004;28;20170;-56
2021/11/16 07:04:40;;;;;;;21.07;16.40;;;8.30;99.90;;;;;;4977666;28;20183;-57
2021/11/16 07:07:07;;;;;;;23.03;16.97;;;8.50;99.90;;;;;;4977658;28;20579;-56
2021/11/16 07:09:35;;;;;;;26.10;17.87;;;8.50;99.90;;;;;;4977866;28;20411;-49
2021/11/16 07:12:02;;;;;;;25.10;16.73;;;8.50;99.90;;;;;;4978061;28;20465;-55
2021/11/16 07:14:39;;;;;;;18.67;15.20;;;8.20;99.90;;;;;;4978101;28;20479;-53
2021/11/16 07:17:10;;;;;;;20.57;15.13;;;8.20;99.90;;;;;;4977316;28;20458;-54
2021/11/16 07:19:45;;;;;;;23.67;16.93;;;8.40;99.90;;;;;;4976908;28;20392;-49
2021/11/16 07:22:26;;;;;;;24.87;18.00;;;8.50;99.90;;;;;;4977040;28;20945;-56
2021/11/16 07:25:05;;;;;;;23.93;17.67;;;8.50;99.90;;;;;;4968037;28;20419;-55
2021/11/16 07:27:43;;;;;;;20.67;16.60;;;8.40;99.90;;;;;;4956517;29;20514;-53
2021/11/16 07:30:15;;;;;;;22.63;16.63;;;8.50;99.90;;;;;;4956667;29;20779;-48
2021/11/16 07:32:46;;;;;;;19.90;14.97;;;8.60;99.90;;;;;;4956601;29;20392;-50
2021/11/16 07:35:15;;;;;;;21.50;16.13;;;8.50;99.90;;;;;;4956280;29;20424;-50
2021/11/16 07:37:43;;;;;;;28.87;19.03;;;8.60;99.90;;;;;;4955817;29;20536;-52
2021/11/16 07:40:16;;;;;;;25.13;17.80;;;8.60;99.90;;;;;;4955884;29;20420;-49
2021/11/16 07:42:58;;;;;;;22.30;17.70;;;8.60;99.90;;;;;;4956509;29;20476;-49
2021/11/16 07:45:24;;;;;;;23.83;18.03;;;8.50;99.90;;;;;;4956394;29;20796;-54
2021/11/16 07:47:53;;;;;;;25.83;18.17;;;8.40;99.90;;;;;;4955750;29;20424;-55
2021/11/16 07:50:31;;;;;;;23.73;17.70;;;8.40;99.90;;;;;;4964177;28;20177;-52
2021/11/16 07:53:10;;;;;;;20.57;15.90;;;8.60;99.90;;;;;;4975128;28;20415;-53
2021/11/16 07:55:36;;;;;;;22.90;16.10;;;8.90;99.90;;;;;;4975552;28;20828;-57
2021/11/16 07:58:12;;;;;;;20.73;17.00;;;8.90;99.90;;;;;;4975045;28;20950;-54
2021/11/16 08:00:42;;;;;;;19.83;15.40;;;8.80;99.90;;;;;;4975482;28;20431;-47
2021/11/16 08:03:10;;;;;;;21.07;15.47;;;8.70;99.90;;;;;;4975575;28;20448;-49
2021/11/16 08:08:50;;;;;;;23.07;16.00;;;8.70;99.90;;;;;;4974935;28;20506;-47
2021/11/16 08:14:08;;;;;;;24.87;18.37;;;8.80;99.90;;;;;;4975210;28;20398;-48
2021/11/16 08:16:49;;;;;;;19.03;15.00;;;8.90;99.90;;;;;;4957815;28;20490;-48
2021/11/16 08:19:18;;;;;;;22.37;16.57;;;8.70;99.90;;;;;;4974876;28;20454;-48
2021/11/16 08:21:45;;;;;;;26.23;17.50;;;8.80;99.90;;;;;;4974740;28;20416;-47
2021/11/16 08:24:14;;;;;;;22.53;16.30;;;8.90;99.90;;;;;;4974794;28;20399;-48
2021/11/16 08:26:46;;;;;;;23.07;16.43;;;9.10;99.90;;;;;;4974877;28;20465;-47
2021/11/16 08:29:15;;;;;;;25.80;17.87;;;9.10;99.90;;;;;;4974716;28;20426;-49
2021/11/16 08:31:51;;;;;;;23.33;17.63;;;9.10;99.90;;;;;;4974859;28;20405;-48
2021/11/16 08:34:18;;;;;;;26.10;18.00;;;9.20;99.90;;;;;;4975183;28;20456;-47
2021/11/16 08:36:51;;;;;;;24.30;17.27;;;9.20;99.90;;;;;;4974538;28;20530;-49
2021/11/16 08:39:19;;;;;;;22.33;17.30;;;9.20;99.90;;;;;;4974775;28;20389;-48
2021/11/16 08:41:45;;;;;;;22.87;16.60;;;9.20;99.90;;;;;;4974687;28;20423;-48
2021/11/16 08:44:14;;;;;;;24.13;16.67;;;9.00;99.90;;;;;;4974112;28;20417;-53
2021/11/16 08:46:42;;;;;;;27.43;18.90;;;9.10;99.90;;;;;;4974395;28;20218;-54
2021/11/16 08:49:07;;;;;;;22.47;17.70;;;8.80;99.90;;;;;;4974746;28;20406;-57
2021/11/16 08:51:43;;;;;;;25.07;18.27;;;8.80;99.90;;;;;;4974280;28;20812;-56
2021/11/16 08:54:09;;;;;;;29.07;20.17;;;9.00;99.90;;;;;;4974538;28;20176;-56
2021/11/16 08:56:41;;;;;;;27.67;19.13;;;8.70;99.90;;;;;;4974266;28;20958;-55
2021/11/16 08:59:14;;;;;;;24.60;17.90;;;8.70;99.90;;;;;;4974101;28;20405;-55
2021/11/16 09:01:56;;;;;;;29.10;19.00;;;8.60;99.90;;;;;;4982519;28;20893;-48
2021/11/16 09:04:24;;;;;;;25.00;18.00;;;8.80;99.90;;;;;;4993669;28;20399;-56
2021/11/16 09:06:52;;;;;;;24.37;17.27;;;8.80;99.90;;;;;;4993110;28;20473;-56
2021/11/16 09:09:17;;;;;;;26.37;19.17;;;8.80;99.90;;;;;;4993962;28;20416;-49
2021/11/16 09:12:03;;;;;;;27.40;18.60;;;8.90;99.90;;;;;;4976131;28;20493;-54
2021/11/16 09:14:30;;;;;;;25.80;17.60;;;8.90;99.90;;;;;;4993244;28;20179;-53
2021/11/16 09:16:58;;;;;;;27.50;19.70;;;8.90;99.90;;;;;;4993575;28;20432;-53
2021/11/16 09:19:24;;;;;;;30.60;17.43;;;8.90;99.90;;;;;;4992413;28;20406;-50
2021/11/16 09:21:50;;;;;;;23.30;16.30;;;9.00;99.90;;;;;;4975348;28;20419;-54
2021/11/16 09:24:18;;;;;;;24.53;16.90;;;9.20;99.90;;;;;;4974700;28;20578;-54
2021/11/16 09:26:57;;;;;;;21.50;14.57;;;9.20;99.90;;;;;;4978342;28;20484;-55
2021/11/16 09:29:25;;;;;;;21.43;14.53;;;8.90;99.90;;;;;;4977625;28;20403;-49
2021/11/16 09:32:07;;;;;;;20.97;14.23;;;8.80;99.90;;;;;;4978022;28;20404;-51
2021/11/16 09:34:36;;;;;;;21.90;14.07;;;8.90;99.90;;;;;;4977797;28;20419;-48
2021/11/16 09:37:23;;;;;;;22.93;14.77;;;8.90;99.90;;;;;;4977377;28;20848;-47
2021/11/16 09:40:03;;;;;;;17.23;12.57;;;8.80;99.90;;;;;;4978048;28;20426;-48
2021/11/16 09:42:33;;;;;;;18.70;11.23;;;8.70;99.90;;;;;;4977874;28;20388;-50
2021/11/16 09:45:09;;;;;;;15.30;11.73;;;8.50;99.90;;;;;;4977544;28;20400;-48
2021/11/16 09:47:42;;;;;;;18.10;12.53;;;8.80;99.90;;;;;;4977574;28;20506;-48
2021/11/16 09:50:18;;;;;;;15.77;10.83;;;8.90;99.90;;;;;;4977304;28;20436;-50
2021/11/16 09:52:48;;;;;;;16.53;12.10;;;8.60;99.90;;;;;;4977472;28;20949;-55
2021/11/16 09:55:18;;;;;;;16.40;11.10;;;8.80;99.90;;;;;;4977295;28;20756;-56
2021/11/16 09:57:51;;;;;;;15.70;10.37;;;8.90;99.90;;;;;;4977081;28;20944;-57
2021/11/16 10:00:25;;;;;;;13.80;10.83;;;8.90;99.90;;;;;;4977481;28;20467;-55
2021/11/16 10:02:59;;;;;;;11.37;8.80;;;8.80;99.90;;;;;;4977216;28;20428;-53
2021/11/16 10:05:27;;;;;;;12.93;9.40;;;8.70;99.90;;;;;;4977281;28;20456;-54
2021/11/16 10:08:01;;;;;;;16.13;9.23;;;8.60;99.90;;;;;;4976724;28;20451;-54
2021/11/16 10:10:31;;;;;;;12.50;9.03;;;8.80;99.90;;;;;;4977406;28;20476;-49
2021/11/16 10:13:03;;;;;;;12.13;8.80;;;8.80;99.90;;;;;;4977378;28;20438;-49
2021/11/16 10:15:32;;;;;;;12.73;9.10;;;8.70;99.90;;;;;;4976933;28;20419;-48
2021/11/16 10:17:58;;;;;;;10.20;7.67;;;8.70;99.90;;;;;;4976885;28;20515;-55
2021/11/16 10:20:30;;;;;;;11.73;7.77;;;8.70;99.90;;;;;;4977213;28;20399;-56
2021/11/16 10:22:57;;;;;;;12.07;9.43;;;8.80;99.90;;;;;;4976925;28;20387;-54
2021/11/16 10:25:27;;;;;;;16.13;10.03;;;8.70;99.90;;;;;;4977072;28;20462;-55
2021/11/16 10:27:55;;;;;;;14.73;10.97;;;8.70;99.90;;;;;;4976345;28;20781;-55
2021/11/16 10:30:24;;;;;;;17.17;10.93;;;8.80;99.90;;;;;;4977011;28;20410;-49
2021/11/16 10:33:10;;;;;;;14.67;10.13;;;8.80;99.90;;;;;;4976556;28;20403;-49
2021/11/16 10:35:42;;;;;;;15.13;10.23;;;8.90;99.90;;;;;;4977957;28;20410;-49
2021/11/16 10:38:11;;;;;;;14.17;8.63;;;8.90;99.90;;;;;;4977832;28;20450;-51
2021/11/16 10:40:37;;;;;;;12.27;8.93;;;8.90;99.90;;;;;;4977921;28;20499;-50
2021/11/16 10:43:05;;;;;;;14.23;10.10;;;8.90;99.90;;;;;;4977325;28;20462;-49
2021/11/16 10:45:43;;;;;;;13.87;9.60;;;8.90;99.90;;;;;;4977775;28;20444;-49
2021/11/16 10:48:11;;;;;;;12.00;8.87;;;8.50;99.90;;;;;;4977581;28;20427;-50
2021/11/16 10:50:39;;;;;;;12.30;9.10;;;8.70;99.90;;;;;;4977342;28;20511;-53
2021/11/16 10:53:10;;;;;;;13.80;8.77;;;8.80;99.90;;;;;;4976198;28;20409;-50
2021/11/16 10:55:43;;;;;;;11.87;8.90;;;8.90;99.90;;;;;;4977008;28;20759;-54
2021/11/16 10:58:32;;;;;;;16.47;9.60;;;8.80;99.90;;;;;;4976142;28;20427;-56
2021/11/16 11:01:12;;;;;;;14.80;8.53;;;8.90;99.90;;;;;;4971349;28;20473;-52
2021/11/16 11:03:51;;;;;;;15.17;10.67;;;8.90;99.90;;;;;;4976284;28;20393;-52
2021/11/16 11:06:21;;;;;;;11.10;8.43;;;8.90;99.90;;;;;;4976886;28;21046;-53
2021/11/16 11:08:57;;;;;;;10.60;7.53;;;8.70;99.90;;;;;;4976623;28;20811;-53
2021/11/16 11:11:47;;;;;;;14.03;9.10;;;8.50;99.90;;;;;;4975599;28;20422;-57
2021/11/16 11:14:17;;;;;;;11.67;8.40;;;8.60;99.90;;;;;;4965947;28;20939;-53
2021/11/16 11:16:59;;;;;;;11.70;8.93;;;8.90;99.90;;;;;;4975800;28;20429;-52
2021/11/16 11:19:34;;;;;;;12.73;9.00;;;8.80;99.90;;;;;;4977262;28;20778;-50
2021/11/16 11:22:26;;;;;;;12.03;8.37;;;8.80;99.90;;;;;;4977514;28;20396;-51
2021/11/16 11:25:10;;;;;;;14.17;8.60;;;8.90;99.90;;;;;;4976024;28;20454;-56
2021/11/16 11:30:17;;;;;;;11.57;7.73;;;8.90;99.90;;;;;;4958303;29;20914;-52
2021/11/16 11:32:45;;;;;;;10.70;7.50;;;9.00;99.90;;;;;;4957213;29;20432;-50
2021/11/16 11:35:13;;;;;;;12.43;7.93;;;9.10;99.90;;;;;;4958075;29;20421;-55
2021/11/16 11:37:51;;;;;;;13.10;8.90;;;9.10;99.90;;;;;;4958583;29;20434;-55
2021/11/16 11:40:20;;;;;;;15.10;9.30;;;9.10;99.90;;;;;;4956651;29;20398;-49
2021/11/16 11:42:56;;;;;;;12.57;8.70;;;9.00;99.90;;;;;;4956545;29;20413;-48
2021/11/16 11:45:25;;;;;;;14.43;8.87;;;9.10;99.90;;;;;;4964320;28;20489;-49
2021/11/16 11:48:08;;;;;;;14.33;9.30;;;9.20;99.90;;;;;;4978313;28;20432;-48
2021/11/16 11:50:44;;;;;;;10.10;7.50;;;9.30;99.90;;;;;;4976731;28;20400;-49
2021/11/16 11:53:18;;;;;;;10.27;7.33;;;9.10;99.90;;;;;;4979892;28;20427;-49
2021/11/16 11:55:47;;;;;;;12.40;8.40;;;9.10;99.90;;;;;;4988131;28;20427;-49
2021/11/16 11:58:15;;;;;;;11.73;7.73;;;9.10;99.90;;;;;;4995842;28;20447;-50
2021/11/16 12:00:44;;;;;;;9.50;7.10;;;9.20;99.90;;;;;;4975427;28;20780;-48
2021/11/16 12:03:11;;;;;;;10.47;7.53;;;9.20;99.90;;;;;;4975488;28;20415;-50
2021/11/16 12:05:39;;;;;;;10.67;7.53;;;8.90;99.90;;;;;;4975190;28;20533;-50
2021/11/16 12:08:06;;;;;;;10.43;7.67;;;8.90;99.90;;;;;;5017790;22;20506;-55
2021/11/16 12:10:33;;;;;;;10.47;6.83;;;9.10;99.90;;;;;;5033031;28;20414;-54
2021/11/16 12:12:59;;;;;;;9.00;5.80;;;9.20;99.90;;;;;;5032761;28;20410;-56
2021/11/16 12:15:27;;;;;;;8.90;6.97;;;9.30;99.90;;;;;;5032627;28;20799;-56
2021/11/16 12:17:55;;;;;;;8.00;6.20;;;9.30;99.90;;;;;;5034120;28;20471;-54
2021/11/16 12:20:45;;;;;;;8.87;6.93;;;9.40;99.90;;;;;;5033423;28;20409;-52
2021/11/16 12:23:14;;;;;;;9.03;6.43;;;9.40;99.90;;;;;;5033427;28;20453;-56
2021/11/16 12:25:41;;;;;;;9.20;6.33;;;9.40;99.90;;;;;;5033522;28;20446;-59
2021/11/16 12:28:24;;;;;;;7.40;6.10;;;9.40;99.90;;;;;;5033027;28;20429;-55
2021/11/16 12:30:50;;;;;;;9.63;6.80;;;9.50;99.90;;;;;;5033707;28;20478;-56
2021/11/16 12:33:38;;;;;;;7.13;5.90;;;9.60;99.90;;;;;;5033438;28;20413;-54
2021/11/16 12:36:04;;;;;;;8.30;7.00;;;9.50;99.90;;;;;;5032329;28;20470;-58
2021/11/16 12:38:41;;;;;;;7.80;6.03;;;9.50;99.90;;;;;;5033114;28;20479;-56
2021/11/16 12:41:32;;;;;;;6.90;5.63;;;9.50;99.90;;;;;;5033729;28;20756;-57
2021/11/16 12:44:04;;;;;;;8.33;6.80;;;9.50;99.90;;;;;;5033239;28;20407;-56
2021/11/16 12:46:32;;;;;;;9.43;6.97;;;9.20;99.90;;;;;;5033425;28;20848;-57
2021/11/16 12:49:00;;;;;;;9.40;7.27;;;9.20;99.90;;;;;;5033174;28;20465;-58
2021/11/16 12:51:29;;;;;;;7.30;6.27;;;8.90;99.90;;;;;;5033035;28;20394;-54
2021/11/16 12:54:04;;;;;;;9.10;6.70;;;9.10;99.90;;;;;;5033057;28;20951;-57
2021/11/16 12:56:42;;;;;;;7.83;5.57;;;9.00;99.90;;;;;;5034452;28;20423;-56
2021/11/16 12:59:12;;;;;;;9.33;7.00;;;8.90;99.90;;;;;;5037656;28;20431;-56
2021/11/16 13:01:43;;;;;;;8.33;6.90;;;8.70;99.90;;;;;;5037189;28;20433;-58
2021/11/16 13:04:12;;;;;;;7.47;6.10;;;8.70;99.90;;;;;;5036753;28;20421;-56
2021/11/16 13:06:40;;;;;;;9.23;6.50;;;8.70;99.90;;;;;;5037165;28;20445;-55
2021/11/16 13:09:08;;;;;;;9.47;7.30;;;8.80;99.90;;;;;;5036689;28;20463;-52
2021/11/16 13:11:44;;;;;;;8.20;6.10;;;8.90;99.90;;;;;;5037118;28;20401;-56
2021/11/16 13:14:12;;;;;;;8.30;6.53;;;8.80;99.90;;;;;;5037461;28;20393;-57